КС Долгодеревенская

Карта отелей и гостиниц, располагающихся рядом с аэропортом КС Долгодеревенская :

КС Долгодеревенская Челябинская область 55° 22' 24.3588" N, 61° 17' 17.2788" E
Код аэродрома ИКАО: 
HAW7
Код аэродрома RU: 
ХАВ7
Координаты: 
N55.37343° E061.28813°
Превышение над уровнем моря : 
228
Основная полоса: 
Курс магнитный: 
Длина основной ВПП: 
Ширина основной ВПП: 
Покрытие основной ВПП: 
Тип: 
Вертодром
Освещение ВПП: 
Класс аэродрома: 
Статус: 
Действующий
Принадлежность: 
ГА
Сайт: 
E-mail аэродрома: 
Страна: 
Россия
Регион: 
Челябинская область
Город: 
Дополнительная информация: 

Найти трансфер

С помощью этой формы Вы можете найти трансфер из аэропорта КС Долгодеревенская в город, аэропорт или вокзал:

Карта места

Javascript is required to view this map.

Погода в аэропортах:

Авиационная погода в Белгороде

Регион: 
Погода METAR: 
UUOB 141730Z 24006MPS 2100 R29/1600D -SHRA BR BKN004CB 15/15 Q1003 R29/290055 NOSIG
Время наблюдения: 
2020-07-14T17:30:00Z
Температура C: 
15.0
Точка росы: 
15.0
Направление ветра: 
240
Скорость ветра: 
12
Метеорологическая видимость: 
1.3
Явления погоды: 
-SHRA BR
Условия полета: 
LIFR
Аэропорт подробнее: 

Авиационная погода в Угольном

Регион: 
Погода METAR: 
UHMA 141800Z 00000MPS 1900 -DZ BR BKN004 BKN011 10/09 Q1003 R01/////// NOSIG RMK TDZ R01/00000G01MPS END R01/05001MPS MT OBSC QFE748/0998
Время наблюдения: 
2020-07-14T18:00:00Z
Температура C: 
10.0
Точка росы: 
9.0
Направление ветра: 
0
Скорость ветра: 
0
Метеорологическая видимость: 
1.18
Явления погоды: 
-DZ BR
Условия полета: 
LIFR
Аэропорт подробнее: 

Авиационная погода в Закаталы

Регион: 
Погода METAR: 
UBBY 141800Z 08012KT 9999 VCTS SCT050CB BKN100 26/18 Q1013 R33/////// NOSIG RMK MT OP
Время наблюдения: 
2020-07-14T18:00:00Z
Температура C: 
26.0
Точка росы: 
18.0
Направление ветра: 
80
Скорость ветра: 
12
Метеорологическая видимость: 
6.21
Явления погоды: 
VCTS
Условия полета: 
VFR

Авиационная погода в Москве - Остафьево

Регион: 
Погода METAR: 
UUMO 141730Z 04010MPS 9999 -TSRA BKN011CB 17/17 Q0999 R08/250350 NOSIG RMK QFE735/0980
Время наблюдения: 
2020-07-14T17:30:00Z
Температура C: 
17.0
Точка росы: 
17.0
Направление ветра: 
40
Скорость ветра: 
19
Метеорологическая видимость: 
6.21
Явления погоды: 
-TSRA
Условия полета: 
MVFR
Аэропорт подробнее: